sensor_id;sensor_type;location;lat;lon;timestamp;P1;durP1;ratioP1;P2;durP2;ratioP2
18983;SDS011;9626;52.552;13.436;2023-03-31T00:01:37;3.70;;;2.10;;
18983;SDS011;9626;52.552;13.436;2023-03-31T00:04:07;5.33;;;2.00;;
18983;SDS011;9626;52.552;13.436;2023-03-31T00:06:35;9.87;;;2.30;;
18983;SDS011;9626;52.552;13.436;2023-03-31T00:09:06;7.10;;;2.30;;
18983;SDS011;9626;52.552;13.436;2023-03-31T00:11:38;5.70;;;1.93;;
18983;SDS011;9626;52.552;13.436;2023-03-31T00:14:04;4.70;;;2.17;;
18983;SDS011;9626;52.552;13.436;2023-03-31T00:16:34;4.80;;;1.80;;
18983;SDS011;9626;52.552;13.436;2023-03-31T00:19:02;4.47;;;1.77;;
18983;SDS011;9626;52.552;13.436;2023-03-31T00:21:28;4.90;;;1.90;;
18983;SDS011;9626;52.552;13.436;2023-03-31T00:24:08;8.13;;;2.30;;
18983;SDS011;9626;52.552;13.436;2023-03-31T00:26:36;6.07;;;2.00;;
18983;SDS011;9626;52.552;13.436;2023-03-31T00:29:03;4.30;;;1.70;;
18983;SDS011;9626;52.552;13.436;2023-03-31T00:31:31;7.93;;;2.80;;
18983;SDS011;9626;52.552;13.436;2023-03-31T00:33:58;5.23;;;1.93;;
18983;SDS011;9626;52.552;13.436;2023-03-31T00:36:24;4.57;;;1.90;;
18983;SDS011;9626;52.552;13.436;2023-03-31T00:38:54;5.00;;;2.10;;
18983;SDS011;9626;52.552;13.436;2023-03-31T00:41:33;6.67;;;1.93;;
18983;SDS011;9626;52.552;13.436;2023-03-31T00:44:04;3.80;;;1.87;;
18983;SDS011;9626;52.552;13.436;2023-03-31T00:46:33;4.20;;;1.60;;
18983;SDS011;9626;52.552;13.436;2023-03-31T00:49:06;5.43;;;1.83;;
18983;SDS011;9626;52.552;13.436;2023-03-31T00:51:39;6.20;;;1.63;;
18983;SDS011;9626;52.552;13.436;2023-03-31T00:54:05;5.17;;;1.97;;
18983;SDS011;9626;52.552;13.436;2023-03-31T00:56:36;6.80;;;2.03;;
18983;SDS011;9626;52.552;13.436;2023-03-31T00:59:07;6.73;;;2.10;;
18983;SDS011;9626;52.552;13.436;2023-03-31T01:01:37;8.37;;;1.80;;
18983;SDS011;9626;52.552;13.436;2023-03-31T01:04:07;5.20;;;1.77;;
18983;SDS011;9626;52.552;13.436;2023-03-31T01:06:37;3.17;;;1.83;;
18983;SDS011;9626;52.552;13.436;2023-03-31T01:09:11;5.37;;;1.80;;
18983;SDS011;9626;52.552;13.436;2023-03-31T01:11:42;4.03;;;1.60;;
18983;SDS011;9626;52.552;13.436;2023-03-31T01:14:10;5.43;;;1.57;;
18983;SDS011;9626;52.552;13.436;2023-03-31T01:16:37;5.50;;;1.93;;
18983;SDS011;9626;52.552;13.436;2023-03-31T01:19:06;3.90;;;1.70;;
18983;SDS011;9626;52.552;13.436;2023-03-31T01:21:45;3.67;;;1.60;;
18983;SDS011;9626;52.552;13.436;2023-03-31T01:30:31;4.63;;;1.80;;
18983;SDS011;9626;52.552;13.436;2023-03-31T01:44:45;4.00;;;1.60;;
18983;SDS011;9626;52.552;13.436;2023-03-31T01:47:27;4.03;;;1.47;;
18983;SDS011;9626;52.552;13.436;2023-03-31T01:50:17;5.33;;;1.60;;
18983;SDS011;9626;52.552;13.436;2023-03-31T01:52:48;4.90;;;1.67;;
18983;SDS011;9626;52.552;13.436;2023-03-31T01:55:22;6.10;;;1.50;;
18983;SDS011;9626;52.552;13.436;2023-03-31T02:01:00;4.97;;;1.73;;
18983;SDS011;9626;52.552;13.436;2023-03-31T02:03:32;5.77;;;1.50;;
18983;SDS011;9626;52.552;13.436;2023-03-31T02:06:08;4.93;;;1.50;;
18983;SDS011;9626;52.552;13.436;2023-03-31T02:08:41;4.80;;;1.63;;
18983;SDS011;9626;52.552;13.436;2023-03-31T02:11:11;5.73;;;1.73;;
18983;SDS011;9626;52.552;13.436;2023-03-31T02:13:39;3.63;;;1.33;;
18983;SDS011;9626;52.552;13.436;2023-03-31T02:16:10;6.13;;;1.90;;
18983;SDS011;9626;52.552;13.436;2023-03-31T02:18:43;3.70;;;1.73;;
18983;SDS011;9626;52.552;13.436;2023-03-31T02:21:12;3.70;;;1.70;;
18983;SDS011;9626;52.552;13.436;2023-03-31T02:23:41;3.70;;;1.33;;
18983;SDS011;9626;52.552;13.436;2023-03-31T02:26:11;5.67;;;1.50;;
18983;SDS011;9626;52.552;13.436;2023-03-31T02:28:40;4.70;;;1.37;;
18983;SDS011;9626;52.552;13.436;2023-03-31T02:33:42;4.47;;;1.50;;
18983;SDS011;9626;52.552;13.436;2023-03-31T02:36:08;5.43;;;1.67;;
18983;SDS011;9626;52.552;13.436;2023-03-31T02:38:38;5.43;;;1.50;;
18983;SDS011;9626;52.552;13.436;2023-03-31T02:41:18;5.13;;;1.53;;
18983;SDS011;9626;52.552;13.436;2023-03-31T02:43:44;3.73;;;1.30;;
18983;SDS011;9626;52.552;13.436;2023-03-31T02:46:10;4.07;;;1.40;;
18983;SDS011;9626;52.552;13.436;2023-03-31T02:48:37;2.67;;;1.40;;
18983;SDS011;9626;52.552;13.436;2023-03-31T02:59:19;4.97;;;2.07;;
18983;SDS011;9626;52.552;13.436;2023-03-31T03:10:07;6.23;;;2.10;;
18983;SDS011;9626;52.552;13.436;2023-03-31T03:15:35;4.20;;;1.43;;
18983;SDS011;9626;52.552;13.436;2023-03-31T03:18:07;6.63;;;1.83;;
18983;SDS011;9626;52.552;13.436;2023-03-31T03:20:33;2.73;;;1.40;;
18983;SDS011;9626;52.552;13.436;2023-03-31T03:23:00;4.33;;;1.40;;
18983;SDS011;9626;52.552;13.436;2023-03-31T03:25:27;3.60;;;1.43;;
18983;SDS011;9626;52.552;13.436;2023-03-31T03:27:54;3.13;;;1.20;;
18983;SDS011;9626;52.552;13.436;2023-03-31T03:30:21;3.83;;;1.63;;
18983;SDS011;9626;52.552;13.436;2023-03-31T03:32:48;4.20;;;1.40;;
18983;SDS011;9626;52.552;13.436;2023-03-31T03:35:15;3.90;;;1.40;;
18983;SDS011;9626;52.552;13.436;2023-03-31T03:37:41;4.37;;;1.57;;
18983;SDS011;9626;52.552;13.436;2023-03-31T03:40:08;7.27;;;1.47;;
18983;SDS011;9626;52.552;13.436;2023-03-31T03:42:35;5.47;;;1.37;;
18983;SDS011;9626;52.552;13.436;2023-03-31T03:45:01;5.80;;;1.27;;
18983;SDS011;9626;52.552;13.436;2023-03-31T03:47:27;4.17;;;1.33;;
18983;SDS011;9626;52.552;13.436;2023-03-31T03:49:55;5.43;;;1.80;;
18983;SDS011;9626;52.552;13.436;2023-03-31T03:52:21;4.30;;;1.50;;
18983;SDS011;9626;52.552;13.436;2023-03-31T03:54:47;3.40;;;1.60;;
18983;SDS011;9626;52.552;13.436;2023-03-31T03:57:14;5.57;;;1.40;;
18983;SDS011;9626;52.552;13.436;2023-03-31T03:59:40;5.03;;;1.07;;
18983;SDS011;9626;52.552;13.436;2023-03-31T04:02:06;2.73;;;1.27;;
18983;SDS011;9626;52.552;13.436;2023-03-31T04:04:31;2.83;;;1.20;;
18983;SDS011;9626;52.552;13.436;2023-03-31T04:06:57;5.00;;;1.57;;
18983;SDS011;9626;52.552;13.436;2023-03-31T04:09:23;3.97;;;1.37;;
18983;SDS011;9626;52.552;13.436;2023-03-31T04:11:50;1.90;;;1.10;;
18983;SDS011;9626;52.552;13.436;2023-03-31T04:14:16;3.87;;;1.33;;
18983;SDS011;9626;52.552;13.436;2023-03-31T04:16:41;5.37;;;1.63;;
18983;SDS011;9626;52.552;13.436;2023-03-31T04:19:11;3.33;;;1.40;;
18983;SDS011;9626;52.552;13.436;2023-03-31T04:21:39;2.97;;;1.57;;
18983;SDS011;9626;52.552;13.436;2023-03-31T04:24:10;5.23;;;1.47;;
18983;SDS011;9626;52.552;13.436;2023-03-31T04:26:45;6.00;;;1.77;;
18983;SDS011;9626;52.552;13.436;2023-03-31T04:29:15;3.67;;;1.50;;
18983;SDS011;9626;52.552;13.436;2023-03-31T04:31:41;3.53;;;1.50;;
18983;SDS011;9626;52.552;13.436;2023-03-31T04:34:08;5.20;;;1.30;;
18983;SDS011;9626;52.552;13.436;2023-03-31T04:36:42;4.30;;;1.63;;
18983;SDS011;9626;52.552;13.436;2023-03-31T04:39:16;6.07;;;1.90;;
18983;SDS011;9626;52.552;13.436;2023-03-31T04:41:48;4.50;;;1.50;;
18983;SDS011;9626;52.552;13.436;2023-03-31T04:44:14;6.73;;;1.97;;
18983;SDS011;9626;52.552;13.436;2023-03-31T04:46:40;4.27;;;1.80;;
18983;SDS011;9626;52.552;13.436;2023-03-31T04:49:06;2.20;;;1.33;;
18983;SDS011;9626;52.552;13.436;2023-03-31T04:51:33;2.63;;;1.50;;
18983;SDS011;9626;52.552;13.436;2023-03-31T04:53:59;3.03;;;1.80;;
18983;SDS011;9626;52.552;13.436;2023-03-31T04:56:25;5.60;;;1.40;;
18983;SDS011;9626;52.552;13.436;2023-03-31T04:58:51;5.77;;;1.80;;
18983;SDS011;9626;52.552;13.436;2023-03-31T05:01:18;3.67;;;1.50;;
18983;SDS011;9626;52.552;13.436;2023-03-31T05:03:51;5.13;;;1.70;;
18983;SDS011;9626;52.552;13.436;2023-03-31T05:06:17;4.47;;;1.73;;
18983;SDS011;9626;52.552;13.436;2023-03-31T05:08:43;5.47;;;1.80;;
18983;SDS011;9626;52.552;13.436;2023-03-31T05:11:10;4.77;;;1.53;;
18983;SDS011;9626;52.552;13.436;2023-03-31T05:13:39;4.37;;;1.30;;
18983;SDS011;9626;52.552;13.436;2023-03-31T05:16:06;3.57;;;1.30;;
18983;SDS011;9626;52.552;13.436;2023-03-31T05:18:33;5.80;;;1.67;;
18983;SDS011;9626;52.552;13.436;2023-03-31T05:21:07;4.40;;;1.43;;
18983;SDS011;9626;52.552;13.436;2023-03-31T05:23:36;4.97;;;1.70;;
18983;SDS011;9626;52.552;13.436;2023-03-31T05:26:02;5.63;;;1.63;;
18983;SDS011;9626;52.552;13.436;2023-03-31T05:28:30;5.00;;;1.90;;
18983;SDS011;9626;52.552;13.436;2023-03-31T05:30:57;3.53;;;1.50;;
18983;SDS011;9626;52.552;13.436;2023-03-31T05:33:25;8.83;;;1.67;;
18983;SDS011;9626;52.552;13.436;2023-03-31T05:35:51;4.40;;;1.50;;
18983;SDS011;9626;52.552;13.436;2023-03-31T05:38:17;6.20;;;2.10;;
18983;SDS011;9626;52.552;13.436;2023-03-31T05:40:43;4.90;;;1.70;;
18983;SDS011;9626;52.552;13.436;2023-03-31T05:43:09;4.00;;;1.87;;
18983;SDS011;9626;52.552;13.436;2023-03-31T05:45:35;6.73;;;1.50;;
18983;SDS011;9626;52.552;13.436;2023-03-31T05:48:01;5.33;;;1.87;;
18983;SDS011;9626;52.552;13.436;2023-03-31T05:50:27;3.27;;;1.60;;
18983;SDS011;9626;52.552;13.436;2023-03-31T05:52:53;5.07;;;1.87;;
18983;SDS011;9626;52.552;13.436;2023-03-31T05:55:19;5.20;;;1.60;;
18983;SDS011;9626;52.552;13.436;2023-03-31T05:57:45;4.30;;;1.80;;
18983;SDS011;9626;52.552;13.436;2023-03-31T06:00:11;6.87;;;2.00;;
18983;SDS011;9626;52.552;13.436;2023-03-31T06:02:39;8.73;;;2.07;;
18983;SDS011;9626;52.552;13.436;2023-03-31T06:05:06;4.57;;;1.83;;
18983;SDS011;9626;52.552;13.436;2023-03-31T06:07:33;8.30;;;2.20;;
18983;SDS011;9626;52.552;13.436;2023-03-31T06:10:00;5.70;;;1.97;;
18983;SDS011;9626;52.552;13.436;2023-03-31T06:12:26;11.60;;;2.40;;
18983;SDS011;9626;52.552;13.436;2023-03-31T06:14:52;5.63;;;1.80;;
18983;SDS011;9626;52.552;13.436;2023-03-31T06:17:18;5.80;;;1.80;;
18983;SDS011;9626;52.552;13.436;2023-03-31T06:19:44;5.07;;;1.53;;
18983;SDS011;9626;52.552;13.436;2023-03-31T06:22:10;8.53;;;1.57;;
18983;SDS011;9626;52.552;13.436;2023-03-31T06:24:38;3.90;;;1.40;;
18983;SDS011;9626;52.552;13.436;2023-03-31T06:27:05;5.93;;;1.70;;
18983;SDS011;9626;52.552;13.436;2023-03-31T06:29:31;7.37;;;2.27;;
18983;SDS011;9626;52.552;13.436;2023-03-31T06:31:57;8.43;;;2.17;;
18983;SDS011;9626;52.552;13.436;2023-03-31T06:34:23;5.93;;;1.63;;
18983;SDS011;9626;52.552;13.436;2023-03-31T06:36:49;7.10;;;2.03;;
18983;SDS011;9626;52.552;13.436;2023-03-31T06:39:16;6.30;;;2.10;;
18983;SDS011;9626;52.552;13.436;2023-03-31T06:41:42;10.03;;;2.00;;
18983;SDS011;9626;52.552;13.436;2023-03-31T06:44:08;6.40;;;2.00;;
18983;SDS011;9626;52.552;13.436;2023-03-31T06:46:34;10.40;;;2.50;;
18983;SDS011;9626;52.552;13.436;2023-03-31T06:49:00;6.27;;;2.10;;
18983;SDS011;9626;52.552;13.436;2023-03-31T06:51:26;7.63;;;2.27;;
18983;SDS011;9626;52.552;13.436;2023-03-31T06:53:52;8.70;;;2.33;;
18983;SDS011;9626;52.552;13.436;2023-03-31T06:56:18;7.47;;;2.33;;
18983;SDS011;9626;52.552;13.436;2023-03-31T06:58:46;8.13;;;2.27;;
18983;SDS011;9626;52.552;13.436;2023-03-31T07:01:12;6.47;;;2.20;;
18983;SDS011;9626;52.552;13.436;2023-03-31T07:03:38;10.50;;;2.63;;
18983;SDS011;9626;52.552;13.436;2023-03-31T07:06:04;4.20;;;1.90;;
18983;SDS011;9626;52.552;13.436;2023-03-31T07:08:31;6.63;;;1.93;;
18983;SDS011;9626;52.552;13.436;2023-03-31T07:10:58;4.93;;;2.20;;
18983;SDS011;9626;52.552;13.436;2023-03-31T07:13:25;9.93;;;2.43;;
18983;SDS011;9626;52.552;13.436;2023-03-31T07:15:52;5.97;;;2.03;;
18983;SDS011;9626;52.552;13.436;2023-03-31T07:18:19;6.00;;;1.87;;
18983;SDS011;9626;52.552;13.436;2023-03-31T07:20:48;5.43;;;2.13;;
18983;SDS011;9626;52.552;13.436;2023-03-31T07:23:15;12.43;;;2.50;;
18983;SDS011;9626;52.552;13.436;2023-03-31T07:25:41;6.07;;;2.60;;
18983;SDS011;9626;52.552;13.436;2023-03-31T07:28:07;5.17;;;2.17;;
18983;SDS011;9626;52.552;13.436;2023-03-31T07:30:33;7.47;;;2.70;;
18983;SDS011;9626;52.552;13.436;2023-03-31T07:33:00;8.70;;;2.27;;
18983;SDS011;9626;52.552;13.436;2023-03-31T07:35:26;4.33;;;1.57;;
18983;SDS011;9626;52.552;13.436;2023-03-31T07:37:54;5.20;;;1.97;;
18983;SDS011;9626;52.552;13.436;2023-03-31T07:40:21;9.10;;;2.20;;
18983;SDS011;9626;52.552;13.436;2023-03-31T07:42:50;5.20;;;2.30;;
18983;SDS011;9626;52.552;13.436;2023-03-31T07:45:18;6.33;;;2.10;;
18983;SDS011;9626;52.552;13.436;2023-03-31T07:47:45;7.97;;;2.10;;
18983;SDS011;9626;52.552;13.436;2023-03-31T07:50:13;7.13;;;1.90;;
18983;SDS011;9626;52.552;13.436;2023-03-31T07:52:40;4.87;;;2.30;;
18983;SDS011;9626;52.552;13.436;2023-03-31T07:55:06;4.87;;;1.80;;
18983;SDS011;9626;52.552;13.436;2023-03-31T07:57:34;7.57;;;2.60;;
18983;SDS011;9626;52.552;13.436;2023-03-31T08:00:02;8.83;;;2.20;;
18983;SDS011;9626;52.552;13.436;2023-03-31T08:02:32;8.17;;;2.27;;
18983;SDS011;9626;52.552;13.436;2023-03-31T08:04:59;7.53;;;2.03;;
18983;SDS011;9626;52.552;13.436;2023-03-31T08:07:28;4.60;;;2.10;;
18983;SDS011;9626;52.552;13.436;2023-03-31T08:09:58;7.37;;;2.10;;
18983;SDS011;9626;52.552;13.436;2023-03-31T08:12:27;9.10;;;3.97;;
18983;SDS011;9626;52.552;13.436;2023-03-31T08:14:53;8.30;;;3.67;;
18983;SDS011;9626;52.552;13.436;2023-03-31T08:17:19;7.30;;;2.37;;
18983;SDS011;9626;52.552;13.436;2023-03-31T08:19:45;6.83;;;2.13;;
18983;SDS011;9626;52.552;13.436;2023-03-31T08:22:11;5.60;;;1.83;;
18983;SDS011;9626;52.552;13.436;2023-03-31T08:24:37;9.47;;;2.00;;
18983;SDS011;9626;52.552;13.436;2023-03-31T08:27:03;6.07;;;2.10;;
18983;SDS011;9626;52.552;13.436;2023-03-31T08:29:29;8.17;;;1.97;;
18983;SDS011;9626;52.552;13.436;2023-03-31T08:31:55;5.17;;;2.40;;
18983;SDS011;9626;52.552;13.436;2023-03-31T08:34:21;6.83;;;1.93;;
18983;SDS011;9626;52.552;13.436;2023-03-31T08:36:47;6.47;;;1.70;;
18983;SDS011;9626;52.552;13.436;2023-03-31T08:39:13;7.13;;;1.80;;
18983;SDS011;9626;52.552;13.436;2023-03-31T08:44:34;7.63;;;2.07;;
18983;SDS011;9626;52.552;13.436;2023-03-31T08:47:06;6.10;;;2.07;;
18983;SDS011;9626;52.552;13.436;2023-03-31T08:49:41;8.77;;;2.50;;
18983;SDS011;9626;52.552;13.436;2023-03-31T08:52:16;8.23;;;2.00;;
18983;SDS011;9626;52.552;13.436;2023-03-31T08:54:49;5.53;;;1.90;;
18983;SDS011;9626;52.552;13.436;2023-03-31T08:57:23;5.60;;;2.00;;
18983;SDS011;9626;52.552;13.436;2023-03-31T08:59:51;4.83;;;1.67;;
18983;SDS011;9626;52.552;13.436;2023-03-31T09:02:32;5.53;;;1.90;;
18983;SDS011;9626;52.552;13.436;2023-03-31T09:05:27;6.07;;;1.83;;
18983;SDS011;9626;52.552;13.436;2023-03-31T09:08:13;5.37;;;1.80;;
18983;SDS011;9626;52.552;13.436;2023-03-31T09:11:06;8.53;;;2.00;;
18983;SDS011;9626;52.552;13.436;2023-03-31T09:13:39;4.27;;;1.73;;
18983;SDS011;9626;52.552;13.436;2023-03-31T09:16:25;8.63;;;1.90;;
18983;SDS011;9626;52.552;13.436;2023-03-31T09:19:12;6.87;;;1.80;;
18983;SDS011;9626;52.552;13.436;2023-03-31T09:21:47;5.60;;;2.00;;
18983;SDS011;9626;52.552;13.436;2023-03-31T09:26:53;5.57;;;1.70;;
18983;SDS011;9626;52.552;13.436;2023-03-31T09:29:27;6.47;;;1.97;;
18983;SDS011;9626;52.552;13.436;2023-03-31T09:32:32;7.80;;;1.97;;
18983;SDS011;9626;52.552;13.436;2023-03-31T09:35:00;6.13;;;1.67;;
18983;SDS011;9626;52.552;13.436;2023-03-31T09:37:37;5.47;;;2.00;;
18983;SDS011;9626;52.552;13.436;2023-03-31T09:40:03;4.40;;;1.93;;
18983;SDS011;9626;52.552;13.436;2023-03-31T09:42:35;5.37;;;1.80;;
18983;SDS011;9626;52.552;13.436;2023-03-31T09:45:03;5.50;;;1.87;;
18983;SDS011;9626;52.552;13.436;2023-03-31T09:50:04;6.63;;;1.80;;
18983;SDS011;9626;52.552;13.436;2023-03-31T09:52:33;7.43;;;2.07;;
18983;SDS011;9626;52.552;13.436;2023-03-31T09:55:03;8.43;;;1.80;;
18983;SDS011;9626;52.552;13.436;2023-03-31T09:57:41;5.73;;;1.80;;
18983;SDS011;9626;52.552;13.436;2023-03-31T10:02:43;6.40;;;1.80;;
18983;SDS011;9626;52.552;13.436;2023-03-31T10:05:28;5.33;;;1.60;;
18983;SDS011;9626;52.552;13.436;2023-03-31T10:10:36;6.63;;;1.50;;
18983;SDS011;9626;52.552;13.436;2023-03-31T10:13:06;5.10;;;1.30;;
18983;SDS011;9626;52.552;13.436;2023-03-31T10:15:38;7.87;;;2.33;;
18983;SDS011;9626;52.552;13.436;2023-03-31T10:18:05;5.70;;;1.80;;
18983;SDS011;9626;52.552;13.436;2023-03-31T10:20:37;6.33;;;1.63;;
18983;SDS011;9626;52.552;13.436;2023-03-31T10:23:27;7.20;;;1.50;;
18983;SDS011;9626;52.552;13.436;2023-03-31T10:25:55;4.80;;;1.70;;
18983;SDS011;9626;52.552;13.436;2023-03-31T10:28:21;4.40;;;1.77;;
18983;SDS011;9626;52.552;13.436;2023-03-31T10:30:49;4.93;;;1.40;;
18983;SDS011;9626;52.552;13.436;2023-03-31T10:33:22;4.93;;;1.40;;
18983;SDS011;9626;52.552;13.436;2023-03-31T10:35:57;4.30;;;1.40;;
18983;SDS011;9626;52.552;13.436;2023-03-31T10:38:26;4.27;;;1.60;;
18983;SDS011;9626;52.552;13.436;2023-03-31T10:41:02;4.27;;;1.33;;
18983;SDS011;9626;52.552;13.436;2023-03-31T10:43:29;3.50;;;1.40;;
18983;SDS011;9626;52.552;13.436;2023-03-31T10:46:02;4.40;;;1.50;;
18983;SDS011;9626;52.552;13.436;2023-03-31T10:48:30;3.60;;;1.40;;
18983;SDS011;9626;52.552;13.436;2023-03-31T10:53:51;5.07;;;1.40;;
18983;SDS011;9626;52.552;13.436;2023-03-31T10:56:36;5.33;;;1.63;;
18983;SDS011;9626;52.552;13.436;2023-03-31T11:13:20;5.13;;;1.57;;
18983;SDS011;9626;52.552;13.436;2023-03-31T11:18:51;4.10;;;1.50;;
18983;SDS011;9626;52.552;13.436;2023-03-31T11:27:28;4.27;;;1.33;;
18983;SDS011;9626;52.552;13.436;2023-03-31T11:30:11;3.63;;;1.40;;
18983;SDS011;9626;52.552;13.436;2023-03-31T11:41:57;2.30;;;1.33;;
18983;SDS011;9626;52.552;13.436;2023-03-31T11:44:17;5.60;;;1.47;;
18983;SDS011;9626;52.552;13.436;2023-03-31T11:49:44;3.97;;;1.40;;
18983;SDS011;9626;52.552;13.436;2023-03-31T11:52:27;4.00;;;1.40;;
18983;SDS011;9626;52.552;13.436;2023-03-31T11:54:59;6.83;;;1.83;;
18983;SDS011;9626;52.552;13.436;2023-03-31T11:57:52;5.00;;;1.40;;
18983;SDS011;9626;52.552;13.436;2023-03-31T12:00:26;6.43;;;2.13;;
18983;SDS011;9626;52.552;13.436;2023-03-31T12:02:58;4.43;;;1.90;;
18983;SDS011;9626;52.552;13.436;2023-03-31T12:05:57;5.77;;;1.77;;
18983;SDS011;9626;52.552;13.436;2023-03-31T12:13:57;7.87;;;2.20;;
18983;SDS011;9626;52.552;13.436;2023-03-31T12:16:37;4.57;;;2.10;;
18983;SDS011;9626;52.552;13.436;2023-03-31T12:19:27;5.10;;;1.83;;
18983;SDS011;9626;52.552;13.436;2023-03-31T12:22:18;6.60;;;2.53;;
18983;SDS011;9626;52.552;13.436;2023-03-31T12:24:50;9.00;;;2.77;;
18983;SDS011;9626;52.552;13.436;2023-03-31T12:27:23;7.67;;;3.43;;
18983;SDS011;9626;52.552;13.436;2023-03-31T12:30:03;7.60;;;2.63;;
18983;SDS011;9626;52.552;13.436;2023-03-31T12:32:44;6.73;;;2.80;;
18983;SDS011;9626;52.552;13.436;2023-03-31T12:35:40;8.83;;;3.03;;
18983;SDS011;9626;52.552;13.436;2023-03-31T12:38:29;6.83;;;2.63;;
18983;SDS011;9626;52.552;13.436;2023-03-31T12:41:02;8.40;;;3.30;;
18983;SDS011;9626;52.552;13.436;2023-03-31T12:49:16;6.57;;;2.70;;
18983;SDS011;9626;52.552;13.436;2023-03-31T12:52:01;4.93;;;2.10;;
18983;SDS011;9626;52.552;13.436;2023-03-31T12:59:36;3.57;;;1.73;;
18983;SDS011;9626;52.552;13.436;2023-03-31T13:04:39;2.03;;;0.90;;
18983;SDS011;9626;52.552;13.436;2023-03-31T13:07:13;2.30;;;1.40;;
18983;SDS011;9626;52.552;13.436;2023-03-31T13:15:49;2.53;;;1.00;;
18983;SDS011;9626;52.552;13.436;2023-03-31T13:18:18;2.73;;;1.10;;
18983;SDS011;9626;52.552;13.436;2023-03-31T13:20:58;4.23;;;1.37;;
18983;SDS011;9626;52.552;13.436;2023-03-31T13:23:26;3.83;;;1.50;;
18983;SDS011;9626;52.552;13.436;2023-03-31T13:26:00;2.60;;;1.50;;
18983;SDS011;9626;52.552;13.436;2023-03-31T13:28:33;4.77;;;2.00;;
18983;SDS011;9626;52.552;13.436;2023-03-31T13:31:08;3.40;;;1.67;;
18983;SDS011;9626;52.552;13.436;2023-03-31T13:33:46;5.77;;;2.23;;
18983;SDS011;9626;52.552;13.436;2023-03-31T13:47:06;6.93;;;3.00;;
18983;SDS011;9626;52.552;13.436;2023-03-31T13:50:03;7.63;;;3.37;;
18983;SDS011;9626;52.552;13.436;2023-03-31T13:52:51;6.60;;;2.83;;
18983;SDS011;9626;52.552;13.436;2023-03-31T14:03:52;3.77;;;2.57;;
18983;SDS011;9626;52.552;13.436;2023-03-31T14:06:51;6.47;;;3.13;;
18983;SDS011;9626;52.552;13.436;2023-03-31T14:09:31;3.57;;;2.40;;
18983;SDS011;9626;52.552;13.436;2023-03-31T14:12:47;4.13;;;2.40;;
18983;SDS011;9626;52.552;13.436;2023-03-31T14:15:02;2.27;;;1.77;;
18983;SDS011;9626;52.552;13.436;2023-03-31T14:17:30;3.03;;;1.90;;
18983;SDS011;9626;52.552;13.436;2023-03-31T14:22:46;2.60;;;1.23;;
18983;SDS011;9626;52.552;13.436;2023-03-31T14:39:08;0.80;;;0.80;;
18983;SDS011;9626;52.552;13.436;2023-03-31T14:41:36;1.30;;;1.00;;
18983;SDS011;9626;52.552;13.436;2023-03-31T14:44:05;4.17;;;1.00;;
18983;SDS011;9626;52.552;13.436;2023-03-31T14:46:35;2.97;;;1.20;;
18983;SDS011;9626;52.552;13.436;2023-03-31T14:49:14;2.37;;;1.30;;
18983;SDS011;9626;52.552;13.436;2023-03-31T14:51:46;1.87;;;1.07;;
18983;SDS011;9626;52.552;13.436;2023-03-31T14:54:16;1.87;;;0.90;;
18983;SDS011;9626;52.552;13.436;2023-03-31T14:56:44;1.80;;;0.87;;
18983;SDS011;9626;52.552;13.436;2023-03-31T14:59:21;1.33;;;1.00;;
18983;SDS011;9626;52.552;13.436;2023-03-31T15:01:52;1.80;;;1.30;;
18983;SDS011;9626;52.552;13.436;2023-03-31T15:04:20;0.83;;;0.80;;
18983;SDS011;9626;52.552;13.436;2023-03-31T15:06:48;1.20;;;0.87;;
18983;SDS011;9626;52.552;13.436;2023-03-31T15:09:20;1.30;;;0.90;;
18983;SDS011;9626;52.552;13.436;2023-03-31T15:11:52;1.17;;;0.90;;
18983;SDS011;9626;52.552;13.436;2023-03-31T15:14:30;5.47;;;3.97;;
18983;SDS011;9626;52.552;13.436;2023-03-31T15:17:00;2.33;;;1.03;;
18983;SDS011;9626;52.552;13.436;2023-03-31T15:19:28;1.90;;;1.10;;
18983;SDS011;9626;52.552;13.436;2023-03-31T15:24:31;2.03;;;1.10;;
18983;SDS011;9626;52.552;13.436;2023-03-31T15:27:14;1.30;;;0.90;;
18983;SDS011;9626;52.552;13.436;2023-03-31T15:29:47;3.83;;;1.00;;
18983;SDS011;9626;52.552;13.436;2023-03-31T15:32:16;1.10;;;0.90;;
18983;SDS011;9626;52.552;13.436;2023-03-31T15:34:48;2.67;;;1.37;;
18983;SDS011;9626;52.552;13.436;2023-03-31T15:37:19;2.00;;;1.70;;
18983;SDS011;9626;52.552;13.436;2023-03-31T15:39:54;1.67;;;1.27;;
18983;SDS011;9626;52.552;13.436;2023-03-31T15:42:23;2.17;;;1.33;;
18983;SDS011;9626;52.552;13.436;2023-03-31T15:44:55;3.07;;;1.33;;
18983;SDS011;9626;52.552;13.436;2023-03-31T15:47:49;1.73;;;1.10;;
18983;SDS011;9626;52.552;13.436;2023-03-31T15:50:21;2.37;;;1.00;;
18983;SDS011;9626;52.552;13.436;2023-03-31T15:52:50;2.73;;;1.03;;
18983;SDS011;9626;52.552;13.436;2023-03-31T15:55:25;3.97;;;1.40;;
18983;SDS011;9626;52.552;13.436;2023-03-31T15:57:52;1.70;;;1.00;;
18983;SDS011;9626;52.552;13.436;2023-03-31T16:00:42;1.27;;;1.17;;
18983;SDS011;9626;52.552;13.436;2023-03-31T16:03:25;2.80;;;1.27;;
18983;SDS011;9626;52.552;13.436;2023-03-31T16:06:00;1.43;;;1.27;;
18983;SDS011;9626;52.552;13.436;2023-03-31T16:08:39;1.80;;;1.30;;
18983;SDS011;9626;52.552;13.436;2023-03-31T16:11:16;1.90;;;1.20;;
18983;SDS011;9626;52.552;13.436;2023-03-31T16:13:48;2.40;;;1.10;;
18983;SDS011;9626;52.552;13.436;2023-03-31T16:16:18;2.83;;;1.47;;
18983;SDS011;9626;52.552;13.436;2023-03-31T16:18:52;2.07;;;1.47;;
18983;SDS011;9626;52.552;13.436;2023-03-31T16:21:27;1.47;;;1.00;;
18983;SDS011;9626;52.552;13.436;2023-03-31T16:24:18;1.70;;;1.40;;
18983;SDS011;9626;52.552;13.436;2023-03-31T16:26:46;1.90;;;1.40;;
18983;SDS011;9626;52.552;13.436;2023-03-31T16:29:20;2.03;;;1.20;;
18983;SDS011;9626;52.552;13.436;2023-03-31T16:31:47;3.30;;;1.57;;
18983;SDS011;9626;52.552;13.436;2023-03-31T16:34:14;1.83;;;1.30;;
18983;SDS011;9626;52.552;13.436;2023-03-31T16:36:40;3.53;;;1.57;;
18983;SDS011;9626;52.552;13.436;2023-03-31T16:39:07;1.80;;;1.70;;
18983;SDS011;9626;52.552;13.436;2023-03-31T16:41:34;3.00;;;1.70;;
18983;SDS011;9626;52.552;13.436;2023-03-31T16:44:02;3.10;;;1.33;;
18983;SDS011;9626;52.552;13.436;2023-03-31T16:46:28;3.80;;;2.37;;
18983;SDS011;9626;52.552;13.436;2023-03-31T16:48:54;3.70;;;2.40;;
18983;SDS011;9626;52.552;13.436;2023-03-31T16:51:20;3.13;;;1.70;;
18983;SDS011;9626;52.552;13.436;2023-03-31T16:53:48;2.40;;;1.57;;
18983;SDS011;9626;52.552;13.436;2023-03-31T16:56:16;3.20;;;1.80;;
18983;SDS011;9626;52.552;13.436;2023-03-31T16:58:42;2.67;;;1.60;;
18983;SDS011;9626;52.552;13.436;2023-03-31T17:01:08;2.53;;;2.30;;
18983;SDS011;9626;52.552;13.436;2023-03-31T17:03:35;3.93;;;2.10;;
18983;SDS011;9626;52.552;13.436;2023-03-31T17:06:05;3.40;;;1.93;;
18983;SDS011;9626;52.552;13.436;2023-03-31T17:08:33;3.13;;;1.80;;
18983;SDS011;9626;52.552;13.436;2023-03-31T17:11:01;2.53;;;1.97;;
18983;SDS011;9626;52.552;13.436;2023-03-31T17:13:29;2.47;;;1.53;;
18983;SDS011;9626;52.552;13.436;2023-03-31T17:15:57;5.10;;;2.87;;
18983;SDS011;9626;52.552;13.436;2023-03-31T17:18:24;3.03;;;1.87;;
18983;SDS011;9626;52.552;13.436;2023-03-31T17:20:51;4.00;;;2.10;;
18983;SDS011;9626;52.552;13.436;2023-03-31T17:23:20;3.13;;;1.97;;
18983;SDS011;9626;52.552;13.436;2023-03-31T17:25:48;1.87;;;1.43;;
18983;SDS011;9626;52.552;13.436;2023-03-31T17:28:17;2.83;;;1.70;;
18983;SDS011;9626;52.552;13.436;2023-03-31T17:30:44;3.33;;;2.17;;
18983;SDS011;9626;52.552;13.436;2023-03-31T17:33:14;4.23;;;2.40;;
18983;SDS011;9626;52.552;13.436;2023-03-31T17:35:40;2.80;;;2.30;;
18983;SDS011;9626;52.552;13.436;2023-03-31T17:38:07;3.30;;;2.20;;
18983;SDS011;9626;52.552;13.436;2023-03-31T17:40:35;3.30;;;2.50;;
18983;SDS011;9626;52.552;13.436;2023-03-31T17:43:02;4.97;;;2.80;;
18983;SDS011;9626;52.552;13.436;2023-03-31T17:45:28;5.80;;;2.77;;
18983;SDS011;9626;52.552;13.436;2023-03-31T17:47:55;4.37;;;3.30;;